• Join FlightAware (Why Join?)
  • Login
  • US Flag 
 
10:01PM EST


 

Airport Tracker/Info


-or-


 

Live Flight TrackerFlight Track Log ✈ AAY805 ✈ 17-Apr-2014 ✈ KCHA - KPIE

Flight Track Log - Related Links

Times and Time Zones

All times are in EDT time to prevent confusion due to time zone crossing. See the AAY805 flight status page for this flight to view local times or setup timezone preferences in your user account.

Time Position Orientation Groundspeed Altitude Reporting Facility
EDT Latitude Longitude Course Direction KTS MPH feet Rate Location/Type
09:08AM 34.8869 -85.1656 155° Southeast 234 269 7,100  Level Atlanta Center
09:09AM 34.8183 -85.1267 155° Southeast 250 288 10,300 2,520 Climbing Atlanta Center
09:10AM 34.7375 -85.0803 155° Southeast 286 329 12,200 2,160 Climbing Atlanta Center
09:16AM 34.1502 -84.7344 154° Southeast 413 475 25,200 2,160 Climbing FlightAware ADS-B (KDZJ)
09:16AM 34.0794 -84.6934 154° Southeast 426 490 26,300 1,320 Climbing FlightAware ADS-B (KDZJ)
09:18AM 33.9494 -84.6222 154° Southeast 418 481 28,100 1,140 Climbing Atlanta Center
09:19AM 33.8392 -84.5564 154° Southeast 429 494 29,200 1,140 Climbing Atlanta Center
09:20AM 33.7119 -84.4883 156° South 434 499 30,400 1,200 Climbing Atlanta Center
09:21AM 33.5911 -84.4428 163° South 450 518 31,700 1,500 Climbing Atlanta Center
09:22AM 33.4825 -84.4347 176° South 445 512 33,400 1,380 Climbing Atlanta Center
09:23AM 33.3617 -84.4317 179° South 440 506 34,500 900 Climbing Atlanta Center
09:24AM 33.2425 -84.4311 180° South 440 506 35,300 900 Climbing Atlanta Center
09:25AM 33.1214 -84.4283 179° South 440 506 36,300 840 Climbing Atlanta Center
09:26AM 32.9964 -84.4278 180° South 440 506 37,000 300 Climbing Atlanta Center
09:27AM 32.8753 -84.4247 179° South 440 506 37,000  Level Atlanta Center
09:28AM 32.7417 -84.4167 177° South 440 506 37,000  Level Atlanta Center
09:29AM 32.6164 -84.4186 181° South 440 506 37,000  Level Atlanta Center
09:30AM 32.4933 -84.4131 178° South 445 512 37,000  Level Atlanta Center
09:31AM 32.3681 -84.4125 180° South 445 512 37,000  Level Atlanta Center
09:32AM 32.2450 -84.4072 178° South 445 512 37,000  Level Atlanta Center
09:33AM 32.1197 -84.4067 180° South 445 512 37,000  Level Atlanta Center
09:34AM 31.9614 -84.4033 179° South 443 510 37,000  Level Jacksonville Center
09:35AM 31.8236 -84.3986 178° South 443 510 37,000  Level Jacksonville Center
09:36AM 31.6983 -84.3967 179° South 443 510 37,000  Level Jacksonville Center
09:37AM 31.5750 -84.3947 179° South 443 510 37,000  Level Jacksonville Center
09:43AM 30.8017 -84.1853 165° South 449 517 37,000  Level FlightAware ADS-B (KTLH)
09:44AM 30.7364 -84.1656 165° South 449 517 37,000 60 Level FlightAware ADS-B (KTLH)
09:44AM 30.6760 -84.1477 166° South 447 514 37,100  Climbing FlightAware ADS-B (KTLH)
09:45AM 30.5946 -84.1237 166° South 445 512 37,000 -120 Descending FlightAware ADS-B (KTLH)
09:46AM 30.5403 -84.1076 166° South 443 510 37,000  Level FlightAware ADS-B (KTLH)
09:46AM 30.4642 -84.0849 166° South 443 510 37,000  Level FlightAware ADS-B (KTLH)
09:47AM 30.4120 -84.0693 166° South 443 510 37,000  Level FlightAware ADS-B (KTLH)
09:47AM 30.3350 -84.0464 166° South 443 510 37,000  Level FlightAware ADS-B (KTLH)
09:48AM 30.2579 -84.0231 163° South 448 516 37,000  Level FlightAware ADS-B (KTLH)
09:49AM 30.0862 -83.9387 157° South 455 524 37,000 -240 Level FlightAware ADS-B (KTLH)
09:50AM 30.0267 -83.9097 157° South 448 516 36,600 -900 Descending Jacksonville Center
09:51AM 29.9100 -83.8511 156° South 453 521 35,600 -960 Descending Jacksonville Center
09:52AM 29.7914 -83.7947 158° South 453 521 34,700 -960 Descending Jacksonville Center
09:53AM 29.6708 -83.7339 156° South 459 528 33,700 -1,020 Descending Jacksonville Center
09:54AM 29.5500 -83.6733 156° South 465 535 32,700 -1,140 Descending Jacksonville Center
09:55AM 29.4314 -83.6150 157° South 465 535 31,500 -1,860 Descending Jacksonville Center
09:56AM 29.3108 -83.5547 156° South 465 535 29,000 -2,460 Descending Jacksonville Center
09:57AM 29.1942 -83.4944 156° South 465 535 26,600 -2,160 Descending Jacksonville Center
09:58AM 29.0817 -83.4247 152° Southeast 460 529 24,700 -1,800 Descending Jacksonville Center
09:59AM 28.9756 -83.3553 150° Southeast 455 524 23,100 -1,800 Descending Jacksonville Center
10:00AM 28.8756 -83.2908 151° Southeast 436 502 21,100 -1,860 Descending Jacksonville Center
10:01AM 28.7839 -83.2336 151° Southeast 403 464 19,400 -1,500 Descending Jacksonville Center
10:02AM 28.6942 -83.1767 151° Southeast 376 433 18,100 -1,440 Descending Jacksonville Center
10:03AM 28.6089 -83.1219 151° Southeast 362 417 16,600 -1,680 Descending Jacksonville Center
10:04AM 28.4833 -83.0500 153° Southeast 342 394 14,100 -1,560 Descending Tampa TRACON
10:05AM 28.4000 -83.0000 152° Southeast 333 383 13,000 -900 Descending Tampa TRACON
10:06AM 28.3167 -82.9667 161° South 314 361 12,400 -1,080 Descending Tampa TRACON
10:07AM 28.2333 -82.9333 161° South 294 338 10,900 -1,980 Descending Tampa TRACON
10:08AM 28.1500 -82.9167 170° South 290 334 8,500 -1,980 Descending Tampa TRACON
10:09AM 28.0833 -82.9000 168° South 286 329 7,000 -1,740 Descending Tampa TRACON
10:10AM 28.0000 -82.8667 161° South 274 315 5,100 -1,500 Descending Tampa TRACON
10:11AM 27.9333 -82.8500 168° South 262 302 4,000 -720 Descending Tampa TRACON
10:12AM 27.8833 -82.8333 164° South 232 267 3,800 -480 Descending Tampa TRACON
10:13AM 27.8167 -82.8167 168° South 207 238 3,100 -360 Descending Tampa TRACON
10:14AM 27.7833 -82.7667 127° Southeast 202 232 3,100 -240 Level Tampa TRACON
10:15AM 27.8000 -82.7000 74° East 168 193 2,700 -720 Descending Tampa TRACON
10:16AM 27.8333 -82.6833 24° Northeast 150 173 1,600 -1,020 Descending Tampa TRACON
10:17AM 27.8667 -82.6833 360° North 136 157 800 -900 Descending Tampa TRACON